createdAt,value
2017-04-10T00:00:38.783Z,0
2017-04-10T00:01:48.006Z,0
2017-04-10T00:02:57.546Z,0
2017-04-10T00:04:06.438Z,0
2017-04-10T00:05:15.979Z,0
2017-04-10T00:06:24.865Z,0
2017-04-10T00:07:33.957Z,0
2017-04-10T00:08:43.519Z,0
2017-04-10T00:09:52.410Z,0
2017-04-10T00:11:01.622Z,0
2017-04-10T00:12:10.509Z,0
2017-04-10T00:13:19.453Z,0
2017-04-10T00:14:28.343Z,0
2017-04-10T00:15:37.231Z,0
2017-04-10T00:16:46.154Z,0
2017-04-10T00:17:55.041Z,0
2017-04-10T00:19:04.258Z,0
2017-04-10T00:20:13.147Z,0
2017-04-10T00:21:22.361Z,0
2017-04-10T00:22:31.577Z,0
2017-04-10T00:23:40.789Z,0
2017-04-10T00:24:50.489Z,0
2017-04-10T00:25:59.701Z,0
2017-04-10T00:27:09.240Z,0
2017-04-10T00:28:18.812Z,0
2017-04-10T00:29:28.676Z,0
2017-04-10T00:30:38.142Z,0
2017-04-10T00:31:47.355Z,0
2017-04-10T00:32:56.243Z,0
2017-04-10T00:34:05.787Z,0
2017-04-10T00:35:15.324Z,0
2017-04-10T00:36:24.366Z,0
2017-04-10T00:37:33.586Z,0
2017-04-10T00:38:42.806Z,0
2017-04-10T00:39:52.022Z,0
2017-04-10T00:41:01.239Z,0
2017-04-10T00:42:10.287Z,0
2017-04-10T00:43:19.836Z,0
2017-04-10T00:44:29.381Z,0
2017-04-10T00:45:38.278Z,0
2017-04-10T00:46:47.831Z,0
2017-04-10T00:47:57.521Z,0
2017-04-10T00:49:07.395Z,0
2017-04-10T00:50:16.611Z,0
2017-04-10T00:51:25.826Z,0
2017-04-10T00:52:34.715Z,0
2017-04-10T00:53:44.459Z,0
2017-04-10T00:54:54.002Z,0
2017-04-10T00:56:02.892Z,0
2017-04-10T00:57:11.787Z,0
2017-04-10T00:58:21.002Z,0
2017-04-10T00:59:31.051Z,0
2017-04-10T01:00:40.267Z,0
2017-04-10T01:01:49.481Z,0
2017-04-10T01:02:58.378Z,0
2017-04-10T01:04:08.894Z,0
2017-04-10T01:05:18.256Z,0
2017-04-10T01:06:27.146Z,0
2017-04-10T01:07:36.687Z,0
2017-04-10T01:08:45.906Z,0
2017-04-10T01:09:55.448Z,0
2017-04-10T01:11:04.489Z,0
2017-04-10T01:12:13.383Z,0
2017-04-10T01:13:22.927Z,0
2017-04-10T01:14:32.475Z,0
2017-04-10T01:15:41.694Z,0
2017-04-10T01:16:50.783Z,0
2017-04-10T01:18:00.333Z,0
2017-04-10T01:19:09.540Z,0
2017-04-10T01:20:18.427Z,0
2017-04-10T01:21:27.314Z,0
2017-04-10T01:22:36.352Z,0
2017-04-10T01:23:45.236Z,0
2017-04-10T01:24:54.449Z,0
2017-04-10T01:26:03.667Z,0
2017-04-10T01:27:12.555Z,0
2017-04-10T01:28:22.072Z,0
2017-04-10T01:29:30.957Z,0
2017-04-10T01:30:39.844Z,0
2017-04-10T01:31:48.730Z,0
2017-04-10T01:32:57.618Z,0
2017-04-10T01:34:07.308Z,0
2017-04-10T01:35:16.197Z,0
2017-04-10T01:36:25.406Z,0
2017-04-10T01:37:34.309Z,0
2017-04-10T01:38:44.499Z,0
2017-04-10T01:39:53.589Z,0
2017-04-10T01:41:02.481Z,0
2017-04-10T01:42:11.370Z,0
2017-04-10T01:43:20.258Z,0
2017-04-10T01:44:29.144Z,0
2017-04-10T01:45:38.080Z,0
2017-04-10T01:46:46.962Z,0
2017-04-10T01:47:56.497Z,0
2017-04-10T01:49:06.035Z,0
2017-04-10T01:50:15.248Z,0
2017-04-10T01:51:24.285Z,0
2017-04-10T01:52:33.505Z,0
2017-04-10T01:53:42.392Z,0
2017-04-10T01:54:51.287Z,0
2017-04-10T01:56:00.507Z,0
2017-04-10T01:57:09.918Z,0
2017-04-10T01:58:19.134Z,0
2017-04-10T01:59:28.024Z,0
2017-04-10T02:00:36.919Z,0
2017-04-10T02:01:46.131Z,0
2017-04-10T02:02:55.020Z,0
2017-04-10T02:04:03.910Z,0
2017-04-10T02:05:13.123Z,0
2017-04-10T02:06:22.339Z,0
2017-04-10T02:07:31.227Z,0
2017-04-10T02:08:40.639Z,0
2017-04-10T02:09:49.524Z,0
2017-04-10T02:10:58.417Z,0
2017-04-10T02:12:07.304Z,0
2017-04-10T02:13:16.517Z,0
2017-04-10T02:14:26.034Z,0
2017-04-10T02:15:35.248Z,0
2017-04-10T02:16:44.788Z,0
2017-04-10T02:17:54.651Z,0
2017-04-10T02:19:04.190Z,0
2017-04-10T02:20:13.755Z,0
2017-04-10T02:21:22.970Z,0
2017-04-10T02:22:32.187Z,0
2017-04-10T02:23:41.077Z,0
2017-04-10T02:24:49.967Z,0
2017-04-10T02:25:59.227Z,0
2017-04-10T02:27:08.444Z,0
2017-04-10T02:28:17.982Z,0
2017-04-10T02:29:27.527Z,0
2017-04-10T02:30:36.414Z,0
2017-04-10T02:31:45.406Z,0
2017-04-10T02:32:54.297Z,0
2017-04-10T02:34:03.185Z,0
2017-04-10T02:35:12.396Z,0
2017-04-10T02:36:21.960Z,0
2017-04-10T02:37:30.900Z,0
2017-04-10T02:38:39.787Z,0
2017-04-10T02:39:48.998Z,0
2017-04-10T02:40:58.215Z,0
2017-04-10T02:42:07.103Z,0
2017-04-10T02:43:16.968Z,0
2017-04-10T02:44:26.502Z,0
2017-04-10T02:45:35.391Z,0
2017-04-10T02:46:44.601Z,0
2017-04-10T02:47:54.471Z,0
2017-04-10T02:49:04.368Z,0
2017-04-10T02:50:13.912Z,0
2017-04-10T02:51:22.802Z,0
2017-04-10T02:52:31.689Z,0
2017-04-10T02:53:40.910Z,0
2017-04-10T02:54:50.120Z,0
2017-04-10T02:55:59.661Z,0
2017-04-10T02:57:08.548Z,0
2017-04-10T02:58:17.758Z,0
2017-04-10T02:59:26.642Z,0
2017-04-10T03:00:35.626Z,0
2017-04-10T03:01:44.511Z,0
2017-04-10T03:02:53.728Z,0
2017-04-10T03:04:02.939Z,0
2017-04-10T03:05:11.828Z,0
2017-04-10T03:06:21.037Z,0
2017-04-10T03:07:30.254Z,0
2017-04-10T03:08:39.468Z,0
2017-04-10T03:09:48.688Z,0
2017-04-10T03:10:57.582Z,0
2017-04-10T03:12:06.851Z,0
2017-04-10T03:13:15.737Z,0
2017-04-10T03:14:24.947Z,0
2017-04-10T03:15:33.834Z,0
2017-04-10T03:16:42.727Z,0
2017-04-10T03:17:51.663Z,0
2017-04-10T03:19:00.558Z,0
2017-04-10T03:20:10.099Z,0
2017-04-10T03:21:19.320Z,0
2017-04-10T03:22:28.224Z,0
2017-04-10T03:23:37.918Z,0
2017-04-10T03:24:47.130Z,0
2017-04-10T03:25:56.015Z,0
2017-04-10T03:27:04.909Z,0
2017-04-10T03:28:13.802Z,0
2017-04-10T03:29:22.845Z,0
2017-04-10T03:30:31.734Z,0
2017-04-10T03:31:40.949Z,0
2017-04-10T03:32:50.167Z,0
2017-04-10T03:34:00.030Z,0
2017-04-10T03:35:09.068Z,0
2017-04-10T03:36:18.605Z,0
2017-04-10T03:37:27.819Z,0
2017-04-10T03:38:37.365Z,0
2017-04-10T03:39:46.259Z,0
2017-04-10T03:40:55.298Z,0
2017-04-10T03:42:04.184Z,0
2017-04-10T03:43:13.076Z,0
2017-04-10T03:44:22.289Z,0
2017-04-10T03:45:31.181Z,0
2017-04-10T03:46:40.546Z,0
2017-04-10T03:47:49.431Z,0
2017-04-10T03:48:58.317Z,0
2017-04-10T03:50:07.205Z,0
2017-04-10T03:51:16.100Z,0
2017-04-10T03:52:25.046Z,0
2017-04-10T03:53:33.934Z,0
2017-04-10T03:54:43.477Z,0
2017-04-10T03:55:53.016Z,0
2017-04-10T03:57:01.905Z,0
2017-04-10T03:58:11.405Z,0
2017-04-10T03:59:20.626Z,0
2017-04-10T04:00:29.835Z,0
2017-04-10T04:01:39.044Z,0
2017-04-10T04:02:47.932Z,0
2017-04-10T04:03:57.296Z,0
2017-04-10T04:05:06.186Z,0
2017-04-10T04:06:15.072Z,0
2017-04-10T04:07:24.287Z,0
2017-04-10T04:08:33.180Z,0
2017-04-10T04:09:42.545Z,0
2017-04-10T04:10:51.757Z,0
2017-04-10T04:12:00.968Z,0
2017-04-10T04:13:10.178Z,0
2017-04-10T04:14:19.070Z,0
2017-04-10T04:15:28.258Z,0
2017-04-10T04:16:37.498Z,0
2017-04-10T04:17:46.712Z,0
2017-04-10T04:18:55.925Z,0
2017-04-10T04:20:05.141Z,0
2017-04-10T04:21:14.434Z,0
2017-04-10T04:22:23.326Z,0
2017-04-10T04:23:32.862Z,0
2017-04-10T04:24:41.748Z,0
2017-04-10T04:25:50.645Z,0
2017-04-10T04:26:59.790Z,0
2017-04-10T04:28:09.007Z,0
2017-04-10T04:29:17.896Z,0
2017-04-10T04:30:26.783Z,5
2017-04-10T04:31:35.994Z,5
2017-04-10T04:32:45.361Z,5
2017-04-10T04:33:54.253Z,5
2017-04-10T04:35:03.467Z,5
2017-04-10T04:36:12.358Z,5
2017-04-10T04:37:21.244Z,10
2017-04-10T04:38:30.184Z,10
2017-04-10T04:39:39.069Z,10
2017-04-10T04:40:47.960Z,10
2017-04-10T04:41:56.844Z,10
2017-04-10T04:43:05.732Z,10
2017-04-10T04:44:15.192Z,15
2017-04-10T04:45:24.406Z,15
2017-04-10T04:46:33.296Z,15
2017-04-10T04:47:42.509Z,15
2017-04-10T04:48:51.397Z,20
2017-04-10T04:50:00.485Z,20
2017-04-10T04:51:09.372Z,20
2017-04-10T04:52:18.261Z,25
2017-04-10T04:53:27.149Z,25
2017-04-10T04:54:36.360Z,25
2017-04-10T04:55:45.725Z,25
2017-04-10T04:56:54.941Z,30
2017-04-10T04:58:04.164Z,30
2017-04-10T04:59:13.060Z,30
2017-04-10T05:00:21.985Z,30
2017-04-10T05:01:31.449Z,35
2017-04-10T05:02:40.335Z,35
2017-04-10T05:03:49.227Z,35
2017-04-10T05:04:58.122Z,40
2017-04-10T05:06:07.010Z,40
2017-04-10T05:07:15.986Z,45
2017-04-10T05:08:25.205Z,45
2017-04-10T05:09:34.427Z,50
2017-04-10T05:10:43.641Z,50
2017-04-10T05:11:52.530Z,55
2017-04-10T05:13:01.573Z,55
2017-04-10T05:14:10.462Z,60
2017-04-10T05:15:19.350Z,60
2017-04-10T05:16:28.565Z,65
2017-04-10T05:17:37.780Z,65
2017-04-10T05:18:46.821Z,65
2017-04-10T05:19:56.034Z,65
2017-04-10T05:21:04.924Z,65
2017-04-10T05:22:14.140Z,70
2017-04-10T05:23:23.033Z,70
2017-04-10T05:24:32.297Z,75
2017-04-10T05:25:41.513Z,75
2017-04-10T05:26:50.414Z,80
2017-04-10T05:27:59.630Z,80
2017-04-10T05:29:08.880Z,80
2017-04-10T05:30:18.243Z,80
2017-04-10T05:31:27.463Z,85
2017-04-10T05:32:36.688Z,85
2017-04-10T05:33:45.574Z,90
2017-04-10T05:34:54.466Z,90
2017-04-10T05:36:03.604Z,90
2017-04-10T05:37:12.817Z,90
2017-04-10T05:38:21.704Z,90
2017-04-10T05:39:30.609Z,90
2017-04-10T05:40:39.823Z,90
2017-04-10T05:41:48.707Z,95
2017-04-10T05:42:57.603Z,95
2017-04-10T05:44:06.818Z,95
2017-04-10T05:45:16.040Z,105
2017-04-10T05:46:24.928Z,110
2017-04-10T05:47:34.256Z,120
2017-04-10T05:48:43.470Z,130
2017-04-10T05:49:52.361Z,135
2017-04-10T05:51:01.249Z,140
2017-04-10T05:52:10.143Z,145
2017-04-10T05:53:19.513Z,150
2017-04-10T05:54:28.403Z,150
2017-04-10T05:55:37.295Z,145
2017-04-10T05:56:46.200Z,145
2017-04-10T05:57:55.415Z,140
2017-04-10T05:59:04.351Z,140
2017-04-10T06:00:13.593Z,140
2017-04-10T06:01:22.808Z,140
2017-04-10T06:02:31.697Z,150
2017-04-10T06:03:41.243Z,160
2017-04-10T06:04:50.484Z,160
2017-04-10T06:05:59.385Z,165
2017-04-10T06:07:08.607Z,180
2017-04-10T06:08:17.500Z,180
2017-04-10T06:09:26.721Z,180
2017-04-10T06:10:35.619Z,180
2017-04-10T06:11:44.511Z,180
2017-04-10T06:12:53.401Z,185
2017-04-10T06:14:02.292Z,185
2017-04-10T06:15:11.186Z,185
2017-04-10T06:16:20.229Z,190
2017-04-10T06:17:29.125Z,185
2017-04-10T06:18:38.015Z,180
2017-04-10T06:19:46.910Z,180
2017-04-10T06:20:55.801Z,175
2017-04-10T06:22:04.842Z,175
2017-04-10T06:23:14.060Z,165
2017-04-10T06:24:22.956Z,155
2017-04-10T06:25:31.884Z,150
2017-04-10T06:26:41.429Z,145
2017-04-10T06:27:50.897Z,145
2017-04-10T06:28:59.814Z,140
2017-04-10T06:30:08.709Z,145
2017-04-10T06:31:17.608Z,145
2017-04-10T06:32:26.500Z,145
2017-04-10T06:33:35.591Z,150
2017-04-10T06:34:44.501Z,160
2017-04-10T06:35:53.396Z,165
2017-04-10T06:37:02.293Z,175
2017-04-10T06:38:11.183Z,190
2017-04-10T06:39:20.652Z,195
2017-04-10T06:40:29.872Z,195
2017-04-10T06:41:38.764Z,175
2017-04-10T06:42:47.662Z,170
2017-04-10T06:43:56.555Z,185
2017-04-10T06:45:05.870Z,195
2017-04-10T06:46:14.763Z,200
2017-04-10T06:47:23.657Z,185
2017-04-10T06:48:32.556Z,210
2017-04-10T06:49:41.454Z,205
2017-04-10T06:50:51.148Z,185
2017-04-10T06:52:00.729Z,185
2017-04-10T06:53:09.952Z,170
2017-04-10T06:54:18.890Z,160
2017-04-10T06:55:28.479Z,145
2017-04-10T06:56:37.559Z,145
2017-04-10T06:57:46.480Z,175
2017-04-10T06:58:55.371Z,170
2017-04-10T07:00:04.327Z,190
2017-04-10T07:01:13.235Z,180
2017-04-10T07:02:22.282Z,165
2017-04-10T07:03:31.441Z,165
2017-04-10T07:04:40.366Z,185
2017-04-10T07:05:49.258Z,190
2017-04-10T07:06:58.803Z,215
2017-04-10T07:08:07.881Z,230
2017-04-10T07:09:16.770Z,255
2017-04-10T07:10:25.664Z,225
2017-04-10T07:11:34.889Z,240
2017-04-10T07:12:44.105Z,190
2017-04-10T07:13:53.162Z,185
2017-04-10T07:15:02.377Z,180
2017-04-10T07:16:11.309Z,220
2017-04-10T07:17:20.214Z,225
2017-04-10T07:18:29.437Z,240
2017-04-10T07:19:38.493Z,275
2017-04-10T07:20:47.398Z,275
2017-04-10T07:21:56.298Z,280
2017-04-10T07:23:05.192Z,310
2017-04-10T07:24:14.085Z,350
2017-04-10T07:25:23.417Z,350
2017-04-10T07:26:32.314Z,310
2017-04-10T07:27:41.208Z,315
2017-04-10T07:28:50.108Z,330
2017-04-10T07:29:59.014Z,320
2017-04-10T07:31:08.167Z,315
2017-04-10T07:32:17.062Z,295
2017-04-10T07:33:25.959Z,305
2017-04-10T07:34:34.848Z,250
2017-04-10T07:35:44.741Z,270
2017-04-10T07:36:53.942Z,270
2017-04-10T07:38:02.832Z,240
2017-04-10T07:39:12.054Z,220
2017-04-10T07:40:20.950Z,225
2017-04-10T07:41:30.172Z,230
2017-04-10T07:42:39.392Z,245
2017-04-10T07:43:48.283Z,195
2017-04-10T07:44:57.180Z,165
2017-04-10T07:46:06.726Z,165
2017-04-10T07:47:15.946Z,180
2017-04-10T07:48:25.162Z,165
2017-04-10T07:49:34.056Z,175
2017-04-10T07:50:42.951Z,175
2017-04-10T07:51:51.843Z,175
2017-04-10T07:53:00.733Z,165
2017-04-10T07:54:09.630Z,135
2017-04-10T07:55:18.524Z,130
2017-04-10T07:56:27.428Z,95
2017-04-10T07:57:36.322Z,75
2017-04-10T07:58:45.216Z,90
2017-04-10T07:59:54.263Z,80
2017-04-10T08:01:03.156Z,65
2017-04-10T08:02:12.048Z,55
2017-04-10T08:03:20.978Z,75
2017-04-10T08:04:30.540Z,85
2017-04-10T08:05:39.587Z,140
2017-04-10T08:06:48.481Z,190
2017-04-10T08:07:57.372Z,210
2017-04-10T08:09:06.270Z,210
2017-04-10T08:10:16.133Z,205
2017-04-10T08:11:25.840Z,195
2017-04-10T08:12:35.382Z,165
2017-04-10T08:13:44.597Z,175
2017-04-10T08:14:53.490Z,170
2017-04-10T08:16:02.707Z,155
2017-04-10T08:17:11.973Z,135
2017-04-10T08:18:21.188Z,135
2017-04-10T08:19:30.108Z,160
2017-04-10T08:21:11.374Z,175
2017-04-10T08:22:20.792Z,175
2017-04-10T08:23:29.688Z,180
2017-04-10T08:24:38.909Z,205
2017-04-10T08:25:47.846Z,200
2017-04-10T08:26:56.783Z,200
2017-04-10T08:28:05.830Z,175
2017-04-10T08:29:15.389Z,150
2017-04-10T08:30:24.276Z,155
2017-04-10T08:31:33.168Z,160
2017-04-10T08:32:42.055Z,150
2017-04-10T08:33:51.099Z,145
2017-04-10T08:34:59.990Z,145
2017-04-10T08:36:09.214Z,140
2017-04-10T08:37:18.426Z,140
2017-04-10T08:38:27.314Z,180
2017-04-10T08:39:36.361Z,215
2017-04-10T08:40:45.579Z,180
2017-04-10T08:41:54.466Z,185
2017-04-10T08:43:03.358Z,185
2017-04-10T08:44:12.248Z,185
2017-04-10T08:45:21.546Z,160
2017-04-10T08:46:30.469Z,145
2017-04-10T08:47:39.363Z,135
2017-04-10T08:48:48.288Z,140
2017-04-10T08:49:57.210Z,150
2017-04-10T08:51:06.355Z,150
2017-04-10T08:52:15.251Z,125
2017-04-10T08:53:24.467Z,120
2017-04-10T08:54:33.364Z,120
2017-04-10T08:55:42.307Z,115
2017-04-10T08:56:51.671Z,120
2017-04-10T08:58:00.887Z,130
2017-04-10T08:59:10.104Z,155
2017-04-10T09:00:19.318Z,205
2017-04-10T09:01:28.233Z,230
2017-04-10T09:02:37.431Z,260
2017-04-10T09:03:46.326Z,240
2017-04-10T09:04:55.217Z,225
2017-04-10T09:06:04.110Z,210
2017-04-10T09:07:13.331Z,170
2017-04-10T09:08:22.421Z,125
2017-04-10T09:09:31.640Z,150
2017-04-10T09:10:40.529Z,210
2017-04-10T09:11:49.420Z,170
2017-04-10T09:12:58.311Z,150
2017-04-10T09:14:07.505Z,160
2017-04-10T09:15:16.730Z,175
2017-04-10T09:16:25.943Z,165
2017-04-10T09:17:34.835Z,160
2017-04-10T09:18:43.724Z,165
2017-04-10T09:19:52.764Z,155
2017-04-10T09:21:01.660Z,155
2017-04-10T09:22:11.205Z,190
2017-04-10T09:23:20.096Z,185
2017-04-10T09:24:28.986Z,190
2017-04-10T09:25:37.930Z,185
2017-04-10T09:26:46.821Z,185
2017-04-10T09:27:55.709Z,145
2017-04-10T09:29:04.926Z,145
2017-04-10T09:30:13.821Z,145
2017-04-10T09:31:23.037Z,165
2017-04-10T09:32:31.935Z,175
2017-04-10T09:33:40.853Z,185
2017-04-10T09:34:49.760Z,185
2017-04-10T09:35:58.652Z,180
2017-04-10T09:37:07.699Z,165
2017-04-10T09:38:16.593Z,165
2017-04-10T09:39:25.812Z,160
2017-04-10T09:40:35.364Z,150
2017-04-10T09:41:44.321Z,150
2017-04-10T09:42:53.313Z,180
2017-04-10T09:44:02.207Z,185
2017-04-10T09:45:11.103Z,160
2017-04-10T09:46:19.997Z,180
2017-04-10T09:47:28.894Z,170
2017-04-10T09:48:38.089Z,155
2017-04-10T09:49:46.979Z,165
2017-04-10T09:50:55.871Z,175
2017-04-10T09:52:04.763Z,120
2017-04-10T09:53:13.653Z,60
2017-04-10T09:54:22.796Z,75
2017-04-10T09:55:31.697Z,115
2017-04-10T09:56:40.918Z,165
2017-04-10T09:57:49.807Z,160
2017-04-10T09:58:58.703Z,160
2017-04-10T10:00:07.598Z,185
2017-04-10T10:01:16.495Z,205
2017-04-10T10:02:25.386Z,215
2017-04-10T10:03:34.286Z,310
2017-04-10T10:04:43.179Z,375
2017-04-10T10:05:52.323Z,340
2017-04-10T10:07:01.228Z,415
2017-04-10T10:08:10.116Z,435
2017-04-10T10:09:19.008Z,355
2017-04-10T10:10:27.895Z,330
2017-04-10T10:11:36.986Z,325
2017-04-10T10:12:45.883Z,275
2017-04-10T10:13:54.772Z,310
2017-04-10T10:15:03.666Z,350
2017-04-10T10:16:12.886Z,375
2017-04-10T10:17:22.078Z,350
2017-04-10T10:18:30.966Z,255
2017-04-10T10:19:40.509Z,245
2017-04-10T10:20:49.397Z,240
2017-04-10T10:21:58.295Z,265
2017-04-10T10:23:07.658Z,285
2017-04-10T10:24:16.552Z,295
2017-04-10T10:25:25.449Z,295
2017-04-10T10:26:34.340Z,360
2017-04-10T10:27:43.556Z,340
2017-04-10T10:28:52.558Z,350
2017-04-10T10:30:01.456Z,410
2017-04-10T10:31:10.346Z,420
2017-04-10T10:32:19.239Z,405
2017-04-10T10:33:28.130Z,375
2017-04-10T10:34:37.068Z,420
2017-04-10T10:35:46.613Z,495
2017-04-10T10:36:55.829Z,485
2017-04-10T10:38:05.052Z,485
2017-04-10T10:39:14.271Z,470
2017-04-10T10:40:23.539Z,470
2017-04-10T10:41:32.435Z,465
2017-04-10T10:42:41.326Z,480
2017-04-10T10:43:50.216Z,460
2017-04-10T10:44:59.110Z,450
2017-04-10T10:46:08.200Z,630
2017-04-10T10:47:17.094Z,695
2017-04-10T10:48:26.636Z,740
2017-04-10T10:49:35.527Z,765
2017-04-10T10:50:44.423Z,710
2017-04-10T10:51:53.616Z,715
2017-04-10T10:53:02.832Z,760
2017-04-10T10:54:11.728Z,685
2017-04-10T10:55:20.624Z,510
2017-04-10T10:56:29.532Z,425
2017-04-10T10:57:38.672Z,515
2017-04-10T10:58:47.568Z,485
2017-04-10T10:59:56.462Z,445
2017-04-10T11:01:05.690Z,400
2017-04-10T11:02:14.912Z,385
2017-04-10T11:03:24.232Z,405
2017-04-10T11:04:33.126Z,445
2017-04-10T11:05:42.340Z,560
2017-04-10T11:06:51.235Z,620
2017-04-10T11:08:00.448Z,650
2017-04-10T11:09:09.550Z,705
2017-04-10T11:10:18.774Z,780
2017-04-10T11:11:27.668Z,800
2017-04-10T11:12:36.564Z,795
2017-04-10T11:13:45.783Z,680
2017-04-10T11:14:55.155Z,500
2017-04-10T11:16:04.046Z,425
2017-04-10T11:17:12.944Z,420
2017-04-10T11:18:22.160Z,415
2017-04-10T11:19:31.054Z,435
2017-04-10T11:20:39.951Z,545
2017-04-10T11:21:48.849Z,700
2017-04-10T11:22:58.073Z,785
2017-04-10T11:24:06.972Z,940
2017-04-10T11:25:16.194Z,1000
2017-04-10T11:26:25.162Z,920
2017-04-10T11:27:34.057Z,865
2017-04-10T11:28:42.950Z,840
2017-04-10T11:29:51.882Z,870
2017-04-10T11:31:01.433Z,865
2017-04-10T11:32:10.389Z,905
2017-04-10T11:33:19.283Z,865
2017-04-10T11:34:28.180Z,820
2017-04-10T11:35:37.077Z,790
2017-04-10T11:36:46.307Z,855
2017-04-10T11:37:55.723Z,845
2017-04-10T11:39:04.619Z,860
2017-04-10T11:40:13.518Z,795
2017-04-10T11:41:22.416Z,680
2017-04-10T11:42:31.309Z,665
2017-04-10T11:43:40.504Z,675
2017-04-10T11:44:49.405Z,660
2017-04-10T11:45:58.350Z,665
2017-04-10T11:47:07.564Z,715
2017-04-10T11:48:16.786Z,800
2017-04-10T11:49:25.826Z,835
2017-04-10T11:50:34.725Z,845
2017-04-10T11:51:43.623Z,830
2017-04-10T11:52:52.521Z,820
2017-04-10T11:54:01.762Z,815
2017-04-10T11:55:10.813Z,850
2017-04-10T11:56:19.709Z,945
2017-04-10T11:57:28.603Z,865
2017-04-10T11:58:37.517Z,830
2017-04-10T11:59:46.754Z,1410
2017-04-10T12:00:55.811Z,910
2017-04-10T12:02:05.038Z,820
2017-04-10T12:03:13.937Z,830
2017-04-10T12:04:22.834Z,1010
2017-04-10T12:05:31.738Z,1650
2017-04-10T12:06:40.788Z,1445
2017-04-10T12:07:50.006Z,955
2017-04-10T12:08:58.900Z,1030
2017-04-10T12:10:08.129Z,1665
2017-04-10T12:11:17.025Z,1905
2017-04-10T12:12:26.290Z,2280
2017-04-10T12:13:35.515Z,2865
2017-04-10T12:14:44.425Z,2750
2017-04-10T12:15:53.363Z,2320
2017-04-10T12:17:02.319Z,430
2017-04-10T12:18:11.366Z,405
2017-04-10T12:19:20.263Z,445
2017-04-10T12:20:29.161Z,555
2017-04-10T12:21:38.387Z,715
2017-04-10T12:22:47.287Z,1260
2017-04-10T12:23:56.244Z,880
2017-04-10T12:25:05.136Z,885
2017-04-10T12:26:14.034Z,845
2017-04-10T12:27:23.251Z,1075
2017-04-10T12:28:32.467Z,2195
2017-04-10T12:29:41.511Z,1460
2017-04-10T12:30:50.425Z,1640
2017-04-10T12:31:59.323Z,1775
2017-04-10T12:33:08.564Z,1335
2017-04-10T12:34:17.462Z,1915
2017-04-10T12:35:26.930Z,1380
2017-04-10T12:36:35.831Z,1230
2017-04-10T12:37:44.730Z,1505
2017-04-10T12:38:53.649Z,2635
2017-04-10T12:40:02.542Z,2440
2017-04-10T12:41:11.641Z,685
2017-04-10T12:42:20.548Z,835
2017-04-10T12:43:29.455Z,795
2017-04-10T12:44:38.679Z,825
2017-04-10T12:45:47.577Z,885
2017-04-10T12:46:56.949Z,815
2017-04-10T12:48:06.177Z,1525
2017-04-10T12:49:15.070Z,2270
2017-04-10T12:50:23.979Z,2900
2017-04-10T12:51:33.201Z,3170
2017-04-10T12:52:42.147Z,2845
2017-04-10T12:53:51.046Z,2135
2017-04-10T12:54:59.940Z,1500
2017-04-10T12:56:08.836Z,1225
2017-04-10T12:57:17.732Z,2370
2017-04-10T12:58:26.680Z,1590
2017-04-10T12:59:35.580Z,1350
2017-04-10T13:00:44.805Z,1980
2017-04-10T13:01:54.029Z,1470
2017-04-10T13:03:02.924Z,765
2017-04-10T13:04:12.067Z,810
2017-04-10T13:05:21.293Z,825
2017-04-10T13:06:30.513Z,845
2017-04-10T13:07:39.733Z,895
2017-04-10T13:08:48.627Z,2550
2017-04-10T13:09:57.573Z,2990
2017-04-10T13:11:06.474Z,2345
2017-04-10T13:12:15.697Z,1635
2017-04-10T13:13:24.925Z,2665
2017-04-10T13:14:34.204Z,2740
2017-04-10T13:15:43.353Z,1000
2017-04-10T13:16:52.255Z,600
2017-04-10T13:18:01.481Z,375
2017-04-10T13:19:10.712Z,295
2017-04-10T13:20:19.619Z,290
2017-04-10T13:21:28.938Z,355
2017-04-10T13:22:37.842Z,430
2017-04-10T13:23:46.743Z,520
2017-04-10T13:24:55.645Z,620
2017-04-10T13:26:04.540Z,565
2017-04-10T13:27:13.924Z,465
2017-04-10T13:28:23.147Z,440
2017-04-10T13:29:32.041Z,460
2017-04-10T13:30:40.935Z,445
2017-04-10T13:31:50.156Z,410
2017-04-10T13:32:59.735Z,380
2017-04-10T13:34:08.641Z,400
2017-04-10T13:35:17.541Z,435
2017-04-10T13:36:26.441Z,425
2017-04-10T13:37:35.368Z,380
2017-04-10T13:38:44.310Z,350
2017-04-10T13:39:53.205Z,330
2017-04-10T13:41:02.428Z,410
2017-04-10T13:42:11.323Z,395
2017-04-10T13:43:20.539Z,360
2017-04-10T13:44:29.481Z,295
2017-04-10T13:45:38.375Z,260
2017-04-10T13:46:47.270Z,280
2017-04-10T13:47:56.163Z,355
2017-04-10T13:49:05.055Z,400
2017-04-10T13:50:14.053Z,380
2017-04-10T13:51:22.948Z,330
2017-04-10T13:52:31.844Z,325
2017-04-10T13:53:40.737Z,370
2017-04-10T13:54:49.630Z,440
2017-04-10T13:55:58.723Z,520
2017-04-10T13:57:07.943Z,565
2017-04-10T13:58:16.846Z,535
2017-04-10T13:59:25.746Z,505
2017-04-10T14:00:34.643Z,495
2017-04-10T14:01:44.015Z,475
2017-04-10T14:02:52.908Z,485
2017-04-10T14:04:01.805Z,495
2017-04-10T14:05:11.025Z,515
2017-04-10T14:06:20.241Z,520
2017-04-10T14:07:29.185Z,510
2017-04-10T14:08:38.076Z,525
2017-04-10T14:09:46.964Z,600
2017-04-10T14:10:55.868Z,525
2017-04-10T14:12:05.107Z,440
2017-04-10T14:13:14.902Z,415
2017-04-10T14:14:23.792Z,370
2017-04-10T14:15:32.684Z,345
2017-04-10T14:16:41.577Z,340
2017-04-10T14:17:50.484Z,355
2017-04-10T14:18:59.531Z,355
2017-04-10T14:20:09.081Z,365
2017-04-10T14:21:17.981Z,410
2017-04-10T14:22:27.209Z,345
2017-04-10T14:23:36.109Z,355
2017-04-10T14:24:45.157Z,435
2017-04-10T14:25:54.706Z,550
2017-04-10T14:27:03.924Z,500
2017-04-10T14:28:12.825Z,430
2017-04-10T14:29:22.049Z,480
2017-04-10T14:30:31.097Z,525
2017-04-10T14:31:39.992Z,530
2017-04-10T14:32:48.886Z,715
2017-04-10T14:33:58.106Z,3240
2017-04-10T14:35:07.333Z,665
2017-04-10T14:36:16.431Z,580
2017-04-10T14:37:25.661Z,390
2017-04-10T14:38:34.562Z,325
2017-04-10T14:39:43.457Z,320
2017-04-10T14:40:52.674Z,330
2017-04-10T14:42:01.786Z,290
2017-04-10T14:43:10.688Z,280
2017-04-10T14:44:19.589Z,320
2017-04-10T14:45:28.813Z,330
2017-04-10T14:46:38.031Z,330
2017-04-10T14:47:47.330Z,300
2017-04-10T14:48:56.551Z,285
2017-04-10T14:50:05.451Z,315
2017-04-10T14:51:14.352Z,345
2017-04-10T14:52:23.249Z,425
2017-04-10T14:53:32.618Z,455
2017-04-10T14:54:41.520Z,440
2017-04-10T14:55:50.742Z,435
2017-04-10T14:56:59.970Z,390
2017-04-10T14:58:09.188Z,360
2017-04-10T14:59:18.718Z,315
2017-04-10T15:00:27.947Z,355
2017-04-10T15:01:36.843Z,475
2017-04-10T15:02:45.738Z,645
2017-04-10T15:03:54.959Z,730
2017-04-10T15:05:04.507Z,2870
2017-04-10T15:06:13.400Z,3830
2017-04-10T15:07:22.955Z,1195
2017-04-10T15:08:32.180Z,2950
2017-04-10T15:09:41.076Z,1050
2017-04-10T15:10:50.077Z,760
2017-04-10T15:11:59.299Z,615
2017-04-10T15:13:08.245Z,440
2017-04-10T15:14:17.515Z,375
2017-04-10T15:15:27.078Z,395
2017-04-10T15:16:36.236Z,445
2017-04-10T15:17:45.161Z,450
2017-04-10T15:18:54.074Z,405
2017-04-10T15:20:02.980Z,435
2017-04-10T15:21:11.884Z,495
2017-04-10T15:22:20.856Z,850
2017-04-10T15:23:29.764Z,665
2017-04-10T15:24:38.677Z,865
2017-04-10T15:25:47.579Z,665
2017-04-10T15:26:56.479Z,890
2017-04-10T15:28:05.639Z,740
2017-04-10T15:29:14.547Z,610
2017-04-10T15:30:23.451Z,475
2017-04-10T15:31:32.670Z,440
2017-04-10T15:32:42.221Z,535
2017-04-10T15:33:51.490Z,435
2017-04-10T15:35:00.710Z,400
2017-04-10T15:36:09.611Z,365
2017-04-10T15:37:18.502Z,345
2017-04-10T15:38:27.721Z,335
2017-04-10T15:39:36.817Z,330
2017-04-10T15:40:46.358Z,325
2017-04-10T15:41:55.589Z,310
2017-04-10T15:43:04.821Z,315
2017-04-10T15:44:13.718Z,320
2017-04-10T15:45:22.762Z,335
2017-04-10T15:46:32.307Z,355
2017-04-10T15:47:41.199Z,320
2017-04-10T15:48:50.417Z,285
2017-04-10T15:49:59.315Z,265
2017-04-10T15:51:08.464Z,225
2017-04-10T15:52:17.358Z,215
2017-04-10T15:53:26.580Z,235
2017-04-10T15:54:36.118Z,265
2017-04-10T15:55:45.016Z,290
2017-04-10T15:56:54.390Z,270
2017-04-10T15:58:03.620Z,250
2017-04-10T15:59:13.171Z,215
2017-04-10T16:00:22.389Z,185
2017-04-10T16:01:31.643Z,180
2017-04-10T16:02:40.736Z,180
2017-04-10T16:03:49.628Z,175
2017-04-10T16:04:58.822Z,190
2017-04-10T16:06:08.367Z,205
2017-04-10T16:07:17.582Z,220
2017-04-10T16:08:26.781Z,230
2017-04-10T16:09:35.683Z,240
2017-04-10T16:10:45.226Z,220
2017-04-10T16:11:54.440Z,205